createdAt,value
2018-11-02T00:01:35.722Z,28.00
2018-11-02T00:04:04.963Z,37.55
2018-11-02T00:06:34.604Z,31.12
2018-11-02T00:09:04.067Z,28.03
2018-11-02T00:11:33.314Z,30.23
2018-11-02T00:14:02.547Z,26.07
2018-11-02T00:16:31.944Z,30.07
2018-11-02T00:19:01.144Z,30.90
2018-11-02T00:21:30.383Z,30.80
2018-11-02T00:23:59.629Z,29.63
2018-11-02T00:26:28.963Z,30.37
2018-11-02T00:28:58.201Z,39.67
2018-11-02T00:31:27.545Z,29.35
2018-11-02T00:33:56.826Z,35.30
2018-11-02T00:36:26.054Z,31.83
2018-11-02T00:38:55.307Z,34.93
2018-11-02T00:41:26.575Z,35.70
2018-11-02T00:43:56.155Z,36.87
2018-11-02T00:46:25.286Z,36.83
2018-11-02T00:48:54.553Z,37.58
2018-11-02T00:51:23.781Z,41.28
2018-11-02T00:53:52.996Z,36.07
2018-11-02T00:56:22.352Z,51.77
2018-11-02T00:58:51.696Z,40.20
2018-11-02T01:01:21.089Z,50.30
2018-11-02T01:03:50.387Z,42.40
2018-11-02T01:06:19.709Z,51.63
2018-11-02T01:08:49.454Z,42.55
2018-11-02T01:11:18.719Z,45.03
2018-11-02T01:13:48.001Z,53.23
2018-11-02T01:16:17.230Z,62.67
2018-11-02T01:18:46.463Z,56.92
2018-11-02T01:21:16.772Z,66.30
2018-11-02T01:23:45.976Z,65.05
2018-11-02T01:26:15.203Z,65.55
2018-11-02T01:28:44.696Z,64.30
2018-11-02T01:31:13.894Z,72.53
2018-11-02T01:33:43.178Z,72.15
2018-11-02T01:36:12.510Z,72.45
2018-11-02T01:38:41.737Z,73.30
2018-11-02T01:41:11.351Z,70.75
2018-11-02T01:43:40.651Z,79.60
2018-11-02T01:46:09.846Z,69.53
2018-11-02T01:48:39.090Z,77.45
2018-11-02T01:51:08.465Z,67.00
2018-11-02T01:53:37.694Z,77.67
2018-11-02T01:56:06.925Z,73.07
2018-11-02T01:58:36.208Z,72.03
2018-11-02T02:01:05.655Z,62.90
2018-11-02T02:03:34.875Z,78.78
2018-11-02T02:06:07.914Z,70.20
2018-11-02T02:08:37.145Z,72.47
2018-11-02T02:11:06.537Z,68.87
2018-11-02T02:13:35.851Z,71.10
2018-11-02T02:16:05.260Z,75.00
2018-11-02T02:18:34.598Z,64.55
2018-11-02T02:21:03.893Z,64.42
2018-11-02T02:23:33.245Z,66.57
2018-11-02T02:26:02.562Z,68.83
2018-11-02T02:28:32.905Z,63.58
2018-11-02T02:31:02.113Z,62.30
2018-11-02T02:33:31.346Z,65.57
2018-11-02T02:36:04.526Z,62.80
2018-11-02T02:38:33.746Z,56.15
2018-11-02T02:41:03.114Z,61.28
2018-11-02T02:43:32.367Z,64.00
2018-11-02T02:46:01.615Z,65.75
2018-11-02T02:48:31.293Z,58.48
2018-11-02T02:51:00.519Z,63.35
2018-11-02T02:53:29.775Z,55.20
2018-11-02T02:55:59.185Z,53.70
2018-11-02T02:58:28.444Z,50.12
2018-11-02T03:00:57.668Z,56.05
2018-11-02T03:03:26.985Z,48.73
2018-11-02T03:05:56.231Z,61.13
2018-11-02T03:08:25.450Z,50.20
2018-11-02T03:10:54.717Z,48.05
2018-11-02T03:13:23.914Z,46.48
2018-11-02T03:15:53.342Z,50.90
2018-11-02T03:18:22.645Z,43.92
2018-11-02T03:20:51.821Z,41.92
2018-11-02T03:23:21.042Z,35.03
2018-11-02T03:25:50.252Z,37.77
2018-11-02T03:28:19.525Z,39.18
2018-11-02T03:30:48.833Z,33.92
2018-11-02T03:33:18.070Z,38.05
2018-11-02T03:35:47.396Z,32.60
2018-11-02T03:38:16.618Z,36.67
2018-11-02T03:40:45.858Z,33.53
2018-11-02T03:43:15.114Z,32.07
2018-11-02T03:45:44.470Z,31.05
2018-11-02T03:48:13.697Z,26.93
2018-11-02T03:50:43.350Z,32.67
2018-11-02T03:53:12.713Z,39.83
2018-11-02T03:55:43.092Z,27.07
2018-11-02T03:58:12.319Z,26.17
2018-11-02T04:00:41.542Z,27.97
2018-11-02T04:03:10.846Z,30.83
2018-11-02T04:05:40.761Z,27.70
2018-11-02T04:08:10.214Z,26.33
2018-11-02T04:10:39.434Z,31.10
2018-11-02T04:13:09.273Z,28.55
2018-11-02T04:15:38.635Z,29.50
2018-11-02T04:18:08.538Z,28.70
2018-11-02T04:20:39.531Z,27.60
2018-11-02T04:23:08.845Z,27.37
2018-11-02T04:25:38.101Z,29.40
2018-11-02T04:28:07.739Z,30.20
2018-11-02T04:30:36.952Z,23.70
2018-11-02T04:33:06.243Z,32.30
2018-11-02T04:35:35.874Z,25.00
2018-11-02T04:38:05.373Z,23.17
2018-11-02T04:40:34.784Z,23.40
2018-11-02T04:43:04.571Z,27.50
2018-11-02T04:45:39.738Z,32.03
2018-11-02T04:48:12.488Z,23.97
2018-11-02T04:50:42.043Z,32.30
2018-11-02T04:53:11.261Z,21.80
2018-11-02T04:55:42.462Z,24.53
2018-11-02T04:58:11.680Z,21.80
2018-11-02T05:00:40.929Z,27.20
2018-11-02T05:03:10.214Z,20.80
2018-11-02T05:05:39.509Z,25.30
2018-11-02T05:08:08.779Z,28.70
2018-11-02T05:10:38.102Z,21.83
2018-11-02T05:13:07.320Z,23.97
2018-11-02T05:15:36.582Z,23.00
2018-11-02T05:18:05.961Z,20.87
2018-11-02T05:20:35.189Z,19.53
2018-11-02T05:23:04.702Z,25.20
2018-11-02T05:25:34.082Z,23.70
2018-11-02T05:28:03.418Z,22.03
2018-11-02T05:30:32.610Z,19.62
2018-11-02T05:33:02.244Z,26.53
2018-11-02T05:35:31.496Z,20.45
2018-11-02T05:38:00.722Z,21.00
2018-11-02T05:40:30.017Z,24.30
2018-11-02T05:43:00.370Z,19.23
2018-11-02T05:45:29.581Z,21.40
2018-11-02T05:47:58.862Z,22.70
2018-11-02T05:50:28.074Z,23.13
2018-11-02T05:52:57.405Z,19.23
2018-11-02T05:55:26.738Z,25.23
2018-11-02T05:57:55.999Z,20.83
2018-11-02T06:00:25.237Z,18.70
2018-11-02T06:02:54.492Z,23.70
2018-11-02T06:05:23.835Z,22.93
2018-11-02T06:07:53.224Z,19.53
2018-11-02T06:10:22.371Z,21.23
2018-11-02T06:12:51.623Z,18.57
2018-11-02T06:15:20.922Z,23.37
2018-11-02T06:17:50.326Z,22.97
2018-11-02T06:20:19.646Z,23.63
2018-11-02T06:22:48.858Z,18.13
2018-11-02T06:25:18.190Z,21.87
2018-11-02T06:27:47.405Z,19.47
2018-11-02T06:30:16.678Z,30.03
2018-11-02T06:32:46.010Z,22.83
2018-11-02T06:35:16.287Z,21.50
2018-11-02T06:37:45.560Z,14.83
2018-11-02T06:40:14.809Z,20.10
2018-11-02T06:42:44.058Z,28.10
2018-11-02T06:45:13.353Z,18.37
2018-11-02T06:47:42.668Z,16.00
2018-11-02T06:50:11.951Z,21.40
2018-11-02T06:52:41.262Z,17.60
2018-11-02T06:55:10.738Z,18.07
2018-11-02T06:57:40.032Z,20.57
2018-11-02T07:00:12.244Z,23.50
2018-11-02T07:02:41.617Z,24.43
2018-11-02T07:05:10.950Z,18.80
2018-11-02T07:07:40.473Z,16.70
2018-11-02T07:10:10.258Z,19.60
2018-11-02T07:12:39.482Z,21.13
2018-11-02T07:15:08.813Z,22.10
2018-11-02T07:17:38.051Z,16.47
2018-11-02T07:20:07.538Z,23.43
2018-11-02T07:22:36.931Z,16.80
2018-11-02T07:25:07.257Z,18.20
2018-11-02T07:27:36.467Z,17.20
2018-11-02T07:30:07.107Z,16.50
2018-11-02T07:32:36.482Z,18.30
2018-11-02T07:35:06.244Z,15.47
2018-11-02T07:37:36.704Z,17.53
2018-11-02T07:40:07.586Z,18.90
2018-11-02T07:42:36.816Z,20.93
2018-11-02T07:45:07.014Z,18.57
2018-11-02T07:47:36.351Z,23.83
2018-11-02T07:50:07.335Z,16.33
2018-11-02T07:52:37.465Z,17.67
2018-11-02T07:55:08.587Z,19.63
2018-11-02T07:57:38.037Z,14.63
2018-11-02T08:00:10.892Z,19.37
2018-11-02T08:02:42.086Z,15.00
2018-11-02T08:05:11.670Z,16.10
2018-11-02T08:07:40.961Z,19.43
2018-11-02T08:10:10.431Z,13.70
2018-11-02T08:12:39.771Z,16.00
2018-11-02T08:15:10.626Z,15.10
2018-11-02T08:17:40.953Z,14.67
2018-11-02T08:20:11.647Z,16.13
2018-11-02T08:22:41.514Z,19.13
2018-11-02T08:25:11.489Z,18.33
2018-11-02T08:27:41.203Z,15.50
2018-11-02T08:30:11.432Z,18.50
2018-11-02T08:32:40.816Z,18.43
2018-11-02T08:35:12.147Z,16.50
2018-11-02T08:37:41.867Z,14.50
2018-11-02T08:40:12.626Z,16.33
2018-11-02T08:42:42.565Z,16.43
2018-11-02T08:45:12.129Z,15.00
2018-11-02T08:47:41.386Z,17.47
2018-11-02T08:50:11.370Z,14.07
2018-11-02T08:52:40.587Z,19.40
2018-11-02T08:55:09.803Z,16.83
2018-11-02T08:57:40.181Z,19.80
2018-11-02T09:00:11.174Z,14.57
2018-11-02T09:02:40.557Z,18.47
2018-11-02T09:05:10.238Z,19.40
2018-11-02T09:07:39.518Z,20.77
2018-11-02T09:10:10.692Z,19.60
2018-11-02T09:12:40.445Z,15.37
2018-11-02T09:15:09.805Z,24.73
2018-11-02T09:17:39.022Z,17.97
2018-11-02T09:20:08.416Z,19.63
2018-11-02T09:22:37.706Z,17.17
2018-11-02T09:25:08.642Z,23.53
2018-11-02T09:27:38.065Z,18.80
2018-11-02T09:30:12.957Z,22.20
2018-11-02T09:32:42.251Z,18.53
2018-11-02T09:35:12.089Z,18.73
2018-11-02T09:37:41.686Z,16.73
2018-11-02T09:40:11.816Z,17.57
2018-11-02T09:42:41.443Z,15.27
2018-11-02T09:45:12.896Z,26.40
2018-11-02T09:47:42.412Z,14.97
2018-11-02T09:50:12.137Z,15.40
2018-11-02T09:52:41.509Z,19.60
2018-11-02T09:55:12.916Z,15.30
2018-11-02T09:57:42.812Z,12.73
2018-11-02T10:00:12.981Z,12.17
2018-11-02T10:02:42.311Z,10.47
2018-11-02T10:05:13.108Z,10.80
2018-11-02T10:07:42.982Z,20.03
2018-11-02T10:10:12.946Z,16.03
2018-11-02T10:12:42.246Z,14.13
2018-11-02T10:15:13.370Z,14.70
2018-11-02T10:17:42.648Z,11.50
2018-11-02T10:20:12.288Z,11.90
2018-11-02T10:22:41.719Z,18.23
2018-11-02T10:25:11.836Z,18.23
2018-11-02T10:27:42.690Z,6.00
2018-11-02T10:30:14.082Z,6.37
2018-11-02T10:32:46.971Z,14.23
2018-11-02T10:35:16.360Z,7.93
2018-11-02T10:37:47.242Z,10.23
2018-11-02T10:40:17.818Z,15.53
2018-11-02T10:42:52.263Z,16.87
2018-11-02T10:45:26.411Z,10.30
2018-11-02T10:47:55.668Z,19.40
2018-11-02T10:50:24.905Z,12.40
2018-11-02T10:52:54.373Z,32.30
2018-11-02T10:55:23.685Z,15.70
2018-11-02T10:57:52.904Z,8.17
2018-11-02T11:00:27.506Z,20.37
2018-11-02T11:02:56.813Z,10.70
2018-11-02T11:05:26.103Z,10.27
2018-11-02T11:07:55.336Z,12.60
2018-11-02T11:10:24.610Z,14.20
2018-11-02T11:12:54.120Z,13.30
2018-11-02T11:15:23.233Z,22.23
2018-11-02T11:17:53.617Z,18.83
2018-11-02T11:20:22.942Z,14.97
2018-11-02T11:22:52.179Z,21.50
2018-11-02T11:25:21.414Z,13.13
2018-11-02T11:27:50.756Z,8.37
2018-11-02T11:30:20.742Z,14.57
2018-11-02T11:32:51.125Z,15.10
2018-11-02T11:35:20.582Z,18.77
2018-11-02T11:37:49.804Z,11.40
2018-11-02T11:40:20.499Z,21.90
2018-11-02T11:42:49.882Z,22.83
2018-11-02T11:45:19.799Z,10.73
2018-11-02T11:47:49.016Z,10.97
2018-11-02T11:50:23.395Z,17.37
2018-11-02T11:52:54.514Z,16.13
2018-11-02T11:55:27.163Z,18.93
2018-11-02T11:57:56.373Z,5.83
2018-11-02T12:00:25.690Z,8.07
2018-11-02T12:02:55.043Z,12.07
2018-11-02T12:05:24.874Z,17.30
2018-11-02T12:07:54.176Z,18.90
2018-11-02T12:10:25.290Z,8.67
2018-11-02T12:12:54.770Z,16.43
2018-11-02T12:15:24.330Z,10.00
2018-11-02T12:17:53.732Z,12.90
2018-11-02T12:20:26.515Z,9.37
2018-11-02T12:22:58.349Z,15.70
2018-11-02T12:25:27.627Z,7.73
2018-11-02T12:27:56.920Z,6.80
2018-11-02T12:31:29.508Z,10.33
2018-11-02T12:33:58.876Z,9.63
2018-11-02T12:36:35.035Z,16.77
2018-11-02T12:39:05.398Z,8.27
2018-11-02T12:41:34.851Z,7.63
2018-11-02T12:44:04.050Z,15.23
2018-11-02T12:46:33.285Z,10.80
2018-11-02T12:49:02.884Z,13.80
2018-11-02T12:51:31.960Z,10.13
2018-11-02T12:54:01.170Z,7.27
2018-11-02T12:56:30.498Z,5.47
2018-11-02T12:59:00.126Z,15.20
2018-11-02T13:01:29.386Z,12.93
2018-11-02T13:03:58.716Z,13.13
2018-11-02T13:06:29.627Z,8.83
2018-11-02T13:08:58.995Z,14.80
2018-11-02T13:11:28.231Z,8.73
2018-11-02T13:13:58.110Z,12.17
2018-11-02T13:16:27.341Z,9.83
2018-11-02T13:18:56.728Z,14.63
2018-11-02T13:21:26.027Z,9.87
2018-11-02T13:23:55.228Z,6.70
2018-11-02T13:26:25.531Z,7.40
2018-11-02T13:28:54.703Z,4.73
2018-11-02T13:31:23.959Z,10.70
2018-11-02T13:33:53.314Z,7.53
2018-11-02T13:36:22.680Z,11.67
2018-11-02T13:38:51.798Z,6.10
2018-11-02T13:41:21.111Z,8.77
2018-11-02T13:43:50.530Z,11.83
2018-11-02T13:46:21.030Z,6.20
2018-11-02T13:48:50.886Z,4.60
2018-11-02T13:51:20.147Z,4.73
2018-11-02T13:53:50.767Z,9.33
2018-11-02T13:56:20.240Z,2.07
2018-11-02T13:58:49.534Z,10.87
2018-11-02T14:01:18.886Z,2.20
2018-11-02T14:03:48.266Z,11.33
2018-11-02T14:06:17.528Z,5.43
2018-11-02T14:08:46.891Z,3.83
2018-11-02T14:11:16.221Z,9.03
2018-11-02T14:13:45.458Z,8.60
2018-11-02T14:16:14.648Z,6.67
2018-11-02T14:18:44.070Z,5.60
2018-11-02T14:21:13.384Z,8.90
2018-11-02T14:23:42.631Z,4.77
2018-11-02T14:26:12.137Z,6.97
2018-11-02T14:28:41.437Z,3.80
2018-11-02T14:31:10.674Z,5.70
2018-11-02T14:33:40.034Z,10.73
2018-11-02T14:36:09.290Z,10.87
2018-11-02T14:38:38.525Z,11.57
2018-11-02T14:41:08.039Z,8.03
2018-11-02T14:43:37.163Z,8.47
2018-11-02T14:46:07.750Z,6.77
2018-11-02T14:48:37.095Z,5.53
2018-11-02T14:51:08.415Z,8.80
2018-11-02T14:53:44.012Z,7.00
2018-11-02T14:56:14.061Z,5.97
2018-11-02T14:58:43.326Z,5.23
2018-11-02T15:01:12.665Z,8.13
2018-11-02T15:03:41.942Z,9.30
2018-11-02T15:06:11.190Z,4.50
2018-11-02T15:08:42.572Z,8.97
2018-11-02T15:11:11.996Z,6.53
2018-11-02T15:13:42.855Z,4.33
2018-11-02T15:16:12.053Z,10.63
2018-11-02T15:18:43.108Z,8.35
2018-11-02T15:21:12.498Z,23.83
2018-11-02T15:23:42.387Z,7.50
2018-11-02T15:26:18.787Z,11.47
2018-11-02T15:28:49.648Z,8.00
2018-11-02T15:31:19.056Z,6.23
2018-11-02T15:33:48.348Z,12.67
2018-11-02T15:36:21.156Z,7.40
2018-11-02T15:38:50.421Z,2.30
2018-11-02T15:41:19.643Z,12.83
2018-11-02T15:43:48.909Z,7.55
2018-11-02T15:46:18.176Z,4.60
2018-11-02T15:48:47.438Z,7.58
2018-11-02T15:51:16.740Z,2.63
2018-11-02T15:53:45.933Z,23.07
2018-11-02T15:56:15.195Z,4.20
2018-11-02T15:58:44.433Z,11.37
2018-11-02T16:01:22.313Z,2.27
2018-11-02T16:03:51.650Z,10.08
2018-11-02T16:06:21.029Z,10.40
2018-11-02T16:08:51.327Z,15.67
2018-11-02T16:11:20.665Z,7.63
2018-11-02T16:13:49.957Z,7.30
2018-11-02T16:16:19.568Z,5.35
2018-11-02T16:18:49.043Z,9.77
2018-11-02T16:21:18.353Z,15.20
2018-11-02T16:23:47.637Z,6.33
2018-11-02T16:26:18.122Z,6.97
2018-11-02T16:28:47.495Z,6.30
2018-11-02T16:31:16.870Z,5.12
2018-11-02T16:33:47.292Z,7.35
2018-11-02T16:36:16.549Z,5.47
2018-11-02T16:38:46.957Z,9.85
2018-11-02T16:41:16.226Z,14.63
2018-11-02T16:43:45.576Z,7.27
2018-11-02T16:46:14.723Z,9.95
2018-11-02T16:48:44.026Z,7.23
2018-11-02T16:51:13.335Z,10.80
2018-11-02T16:53:42.546Z,9.33
2018-11-02T16:56:11.845Z,8.27
2018-11-02T16:58:41.122Z,8.37
2018-11-02T17:01:10.356Z,8.50
2018-11-02T17:03:39.604Z,7.33
2018-11-02T17:06:08.944Z,10.10
2018-11-02T17:08:38.034Z,8.13
2018-11-02T17:11:07.257Z,14.53
2018-11-02T17:13:36.489Z,8.18
2018-11-02T17:16:06.149Z,22.37
2018-11-02T17:18:36.154Z,16.67
2018-11-02T17:21:05.543Z,7.87
2018-11-02T17:23:35.221Z,9.60
2018-11-02T17:26:05.779Z,12.60
2018-11-02T17:28:35.003Z,9.33
2018-11-02T17:31:04.232Z,13.40
2018-11-02T17:33:33.600Z,7.95
2018-11-02T17:36:02.904Z,7.28
2018-11-02T17:38:32.181Z,8.43
2018-11-02T17:41:01.455Z,12.43
2018-11-02T17:43:30.758Z,9.73
2018-11-02T17:46:00.100Z,18.90
2018-11-02T17:48:29.806Z,16.35
2018-11-02T17:50:59.133Z,14.73
2018-11-02T17:53:28.561Z,15.53
2018-11-02T17:55:57.903Z,12.05
2018-11-02T17:58:28.263Z,8.98
2018-11-02T18:00:57.960Z,6.80
2018-11-02T18:03:27.235Z,13.45
2018-11-02T18:05:56.891Z,5.55
2018-11-02T18:08:26.352Z,5.45
2018-11-02T18:10:55.528Z,6.53
2018-11-02T18:13:24.942Z,9.65
2018-11-02T18:15:54.211Z,8.13
2018-11-02T18:18:23.534Z,11.00
2018-11-02T18:20:53.481Z,18.23
2018-11-02T18:23:25.397Z,11.68
2018-11-02T18:26:23.017Z,14.50
2018-11-02T18:43:01.991Z,10.03
2018-11-02T18:45:32.319Z,10.78
2018-11-02T18:48:01.745Z,24.67
2018-11-02T18:50:32.157Z,15.10
2018-11-02T18:53:01.385Z,21.50
2018-11-02T18:55:30.920Z,10.25
2018-11-02T18:58:00.367Z,12.28
2018-11-02T19:00:29.746Z,21.20
2018-11-02T19:02:59.042Z,12.30
2018-11-02T19:05:28.479Z,10.20
2018-11-02T19:07:58.841Z,18.60
2018-11-02T19:10:28.097Z,16.62
2018-11-02T19:12:57.548Z,15.45
2018-11-02T19:21:53.579Z,20.32
2018-11-02T19:24:22.816Z,12.43
2018-11-02T19:26:52.190Z,17.90
2018-11-02T19:29:22.529Z,15.78
2018-11-02T19:31:52.837Z,17.65
2018-11-02T19:34:22.181Z,12.70
2018-11-02T19:36:51.326Z,18.57
2018-11-02T19:39:20.649Z,19.82
2018-11-02T19:41:51.022Z,16.75
2018-11-02T19:44:20.370Z,18.45
2018-11-02T19:46:49.573Z,15.13
2018-11-02T19:49:18.849Z,9.83
2018-11-02T19:51:48.157Z,15.28
2018-11-02T19:54:17.466Z,28.47
2018-11-02T19:56:46.751Z,20.92
2018-11-02T19:59:16.293Z,9.40
2018-11-02T20:01:46.551Z,14.47
2018-11-02T20:04:15.879Z,18.62
2018-11-02T20:06:45.166Z,14.20
2018-11-02T20:09:14.850Z,9.35
2018-11-02T20:11:44.288Z,12.07
2018-11-02T20:14:14.570Z,20.70
2018-11-02T20:16:43.923Z,18.15
2018-11-02T20:19:14.434Z,24.90
2018-11-02T20:21:49.620Z,26.27
2018-11-02T20:24:19.936Z,7.35
2018-11-02T20:26:51.090Z,15.43
2018-11-02T20:29:20.281Z,14.35
2018-11-02T20:31:49.686Z,18.55
2018-11-02T20:34:19.044Z,14.13
2018-11-02T20:36:48.337Z,17.35
2018-11-02T20:39:17.700Z,13.83
2018-11-02T20:41:46.984Z,7.03
2018-11-02T20:44:16.213Z,9.75
2018-11-02T20:46:45.453Z,17.10
2018-11-02T20:49:15.808Z,17.10
2018-11-02T20:51:45.160Z,16.45
2018-11-02T20:54:14.514Z,15.58
2018-11-02T20:56:43.805Z,16.27
2018-11-02T20:59:13.061Z,9.68
2018-11-02T21:01:42.294Z,9.25
2018-11-02T21:04:11.540Z,7.90
2018-11-02T21:06:40.907Z,9.83
2018-11-02T21:09:12.123Z,24.80
2018-11-02T21:11:41.463Z,30.12
2018-11-02T21:14:10.807Z,12.90
2018-11-02T21:16:39.845Z,17.48
2018-11-02T21:19:09.082Z,19.50
2018-11-02T21:21:38.546Z,23.67
2018-11-02T21:24:07.851Z,9.60
2018-11-02T21:26:37.104Z,15.65
2018-11-02T21:29:06.330Z,14.28
2018-11-02T21:31:35.514Z,8.03
2018-11-02T21:34:04.909Z,19.00
2018-11-02T21:36:34.176Z,15.93
2018-11-02T21:39:04.886Z,6.25
2018-11-02T21:41:34.141Z,14.38
2018-11-02T21:44:03.449Z,10.85
2018-11-02T21:46:35.583Z,16.27
2018-11-02T21:49:04.834Z,7.62
2018-11-02T21:51:34.187Z,8.58
2018-11-02T21:54:04.319Z,14.05
2018-11-02T21:56:33.585Z,9.38
2018-11-02T21:59:02.718Z,14.93
2018-11-02T22:01:32.004Z,15.63
2018-11-02T22:04:02.281Z,17.55
2018-11-02T22:06:32.574Z,9.08
2018-11-02T22:09:01.974Z,14.93
2018-11-02T22:11:31.301Z,13.55
2018-11-02T22:14:00.565Z,16.10
2018-11-02T22:16:29.886Z,9.20
2018-11-02T22:18:59.079Z,11.38
2018-11-02T22:21:28.425Z,11.75
2018-11-02T22:23:59.695Z,20.43
2018-11-02T22:26:28.974Z,32.58
2018-11-02T22:28:58.718Z,10.90
2018-11-02T22:31:28.075Z,21.57
2018-11-02T22:33:57.515Z,9.03
2018-11-02T22:36:26.841Z,17.75
2018-11-02T22:38:56.102Z,8.90
2018-11-02T22:41:25.354Z,15.35
2018-11-02T22:43:54.882Z,21.82
2018-11-02T22:46:25.184Z,21.85
2018-11-02T22:48:54.484Z,10.70
2018-11-02T22:51:23.716Z,13.10
2018-11-02T22:53:53.116Z,11.08
2018-11-02T22:56:23.434Z,9.65
2018-11-02T22:58:53.729Z,14.50
2018-11-02T23:01:26.917Z,23.98
2018-11-02T23:03:57.778Z,11.10
2018-11-02T23:06:27.221Z,20.50
2018-11-02T23:08:56.564Z,7.72
2018-11-02T23:11:25.742Z,16.20
2018-11-02T23:13:56.006Z,11.40
2018-11-02T23:16:25.282Z,9.65
2018-11-02T23:18:54.490Z,15.48
2018-11-02T23:21:23.725Z,19.23
2018-11-02T23:23:52.951Z,17.52
2018-11-02T23:26:22.193Z,14.33
2018-11-02T23:28:51.399Z,10.95
2018-11-02T23:31:20.697Z,12.00
2018-11-02T23:33:49.956Z,9.70
2018-11-02T23:36:19.146Z,24.50
2018-11-02T23:38:48.451Z,17.37
2018-11-02T23:41:17.662Z,14.90
2018-11-02T23:43:46.958Z,20.88
2018-11-02T23:46:16.344Z,8.78
2018-11-02T23:48:45.532Z,14.28
2018-11-02T23:51:14.736Z,15.45
2018-11-02T23:53:44.104Z,8.53
2018-11-02T23:56:13.269Z,8.70
2018-11-02T23:58:42.498Z,8.93
